Time,TemperatureF,DewpointF,PressureIn,WindDirection,WindDirectionDegrees,WindSpeedMPH,WindSpeedGustMPH,Humidity,HourlyPrecipIn,Conditions,Clouds,dailyrainin,SoftwareType,DateUTC
2015-09-05 00:04:00,69.4,66.3,30.05,South,182,0.0,2.0,90,0.02,,,0.00,VWS V15.00,2015-09-05 04:04:00,
2015-09-05 00:09:00,69.1,66.1,30.05,South,182,0.0,0.0,90,0.02,,,0.01,VWS V15.00,2015-09-05 04:09:00,
2015-09-05 00:14:00,68.9,65.8,30.05,South,182,0.0,0.0,90,0.02,,,0.01,VWS V15.00,2015-09-05 04:14:00,
2015-09-05 00:19:00,68.8,66.1,30.04,South,182,0.0,0.0,91,0.02,,,0.01,VWS V15.00,2015-09-05 04:19:00,
2015-09-05 00:24:00,68.6,65.9,30.04,South,182,0.0,0.0,91,0.02,,,0.01,VWS V15.00,2015-09-05 04:24:00,
2015-09-05 00:29:00,68.5,65.8,30.04,South,182,0.0,0.0,91,0.01,,,0.01,VWS V15.00,2015-09-05 04:29:00,
2015-09-05 00:34:00,68.4,66.0,30.04,South,182,0.0,0.0,92,0.01,,,0.01,VWS V15.00,2015-09-05 04:34:00,
2015-09-05 00:39:00,68.3,65.9,30.03,South,182,0.0,0.0,92,0.01,,,0.01,VWS V15.00,2015-09-05 04:39:00,
2015-09-05 00:44:00,68.2,66.1,30.03,South,182,0.0,0.0,93,0.02,,,0.02,VWS V15.00,2015-09-05 04:44:00,
2015-09-05 00:49:00,68.1,66.0,30.03,South,182,0.0,0.0,93,0.02,,,0.02,VWS V15.00,2015-09-05 04:49:00,
2015-09-05 00:54:00,68.0,65.9,30.02,South,182,0.0,0.0,93,0.02,,,0.02,VWS V15.00,2015-09-05 04:54:00,
2015-09-05 00:59:00,67.9,65.8,30.02,South,182,0.0,0.0,93,0.02,,,0.02,VWS V15.00,2015-09-05 04:59:00,
2015-09-05 01:04:00,67.8,66.0,30.02,South,182,0.0,0.0,94,0.02,,,0.02,VWS V15.00,2015-09-05 05:04:00,
2015-09-05 01:09:00,67.7,65.9,30.02,South,182,0.0,0.0,94,0.01,,,0.02,VWS V15.00,2015-09-05 05:09:00,
2015-09-05 01:14:00,67.7,65.9,30.02,South,182,0.0,0.0,94,0.01,,,0.02,VWS V15.00,2015-09-05 05:14:00,
2015-09-05 01:19:00,67.6,65.8,30.03,South,182,0.0,0.0,94,0.01,,,0.02,VWS V15.00,2015-09-05 05:19:00,
2015-09-05 01:24:00,67.6,66.1,30.02,South,182,0.0,0.0,95,0.01,,,0.02,VWS V15.00,2015-09-05 05:24:00,
2015-09-05 01:29:00,67.6,66.1,30.02,South,182,0.0,0.0,95,0.01,,,0.02,VWS V15.00,2015-09-05 05:29:00,
2015-09-05 01:34:00,67.6,66.1,30.02,South,182,0.0,0.0,95,0.01,,,0.02,VWS V15.00,2015-09-05 05:34:00,
2015-09-05 01:39:00,67.5,66.0,30.02,South,182,0.0,0.0,95,0.01,,,0.02,VWS V15.00,2015-09-05 05:39:00,
2015-09-05 01:45:00,67.5,66.0,30.03,South,182,0.0,0.0,95,0.01,,,0.02,VWS V15.00,2015-09-05 05:45:00,
2015-09-05 01:50:00,67.5,66.0,30.03,South,182,0.0,0.0,95,0.00,,,0.02,VWS V15.00,2015-09-05 05:50:00,
2015-09-05 01:55:00,67.4,65.9,30.03,South,182,0.0,0.0,95,0.01,,,0.03,VWS V15.00,2015-09-05 05:55:00,
2015-09-05 02:00:00,67.3,65.8,30.03,South,182,0.0,0.0,95,0.01,,,0.03,VWS V15.00,2015-09-05 06:00:00,
2015-09-05 02:05:00,67.2,65.7,30.02,South,182,0.0,0.0,95,0.01,,,0.03,VWS V15.00,2015-09-05 06:05:00,
2015-09-05 02:10:00,67.1,65.9,30.02,South,182,0.0,0.0,96,0.01,,,0.03,VWS V15.00,2015-09-05 06:10:00,
2015-09-05 02:15:00,67.1,65.9,30.02,South,182,0.0,0.0,96,0.01,,,0.03,VWS V15.00,2015-09-05 06:15:00,
2015-09-05 02:20:00,67.0,65.8,30.02,South,182,0.0,0.0,96,0.01,,,0.03,VWS V15.00,2015-09-05 06:20:00,
2015-09-05 02:25:00,66.8,65.3,30.02,South,182,0.0,0.0,95,0.01,,,0.03,VWS V15.00,2015-09-05 06:25:00,
2015-09-05 02:30:00,66.8,65.6,30.02,South,182,0.0,0.0,96,0.01,,,0.03,VWS V15.00,2015-09-05 06:30:00,
2015-09-05 02:35:00,66.8,65.6,30.02,South,182,0.0,0.0,96,0.01,,,0.03,VWS V15.00,2015-09-05 06:35:00,
2015-09-05 02:40:00,66.8,65.6,30.02,South,182,0.0,0.0,96,0.01,,,0.03,VWS V15.00,2015-09-05 06:40:00,
2015-09-05 02:45:00,66.6,65.4,30.02,South,182,0.0,0.0,96,0.01,,,0.03,VWS V15.00,2015-09-05 06:45:00,
2015-09-05 02:50:00,66.5,65.3,30.02,South,182,0.0,0.0,96,0.01,,,0.03,VWS V15.00,2015-09-05 06:50:00,
2015-09-05 02:55:00,66.3,65.1,30.02,South,182,0.0,0.0,96,0.01,,,0.03,VWS V15.00,2015-09-05 06:55:00,
2015-09-05 03:00:00,66.3,65.1,30.02,South,182,0.0,0.0,96,0.00,,,0.03,VWS V15.00,2015-09-05 07:00:00,
2015-09-05 03:05:00,66.2,65.0,30.02,South,182,0.0,0.0,96,0.01,,,0.04,VWS V15.00,2015-09-05 07:05:00,
2015-09-05 03:10:00,66.2,65.0,30.02,South,182,0.0,0.0,96,0.01,,,0.04,VWS V15.00,2015-09-05 07:10:00,
2015-09-05 03:15:00,66.2,65.0,30.02,South,182,0.0,0.0,96,0.01,,,0.04,VWS V15.00,2015-09-05 07:15:00,
2015-09-05 03:20:00,66.2,65.0,30.02,South,182,0.0,0.0,96,0.01,,,0.04,VWS V15.00,2015-09-05 07:20:00,
2015-09-05 03:25:00,66.1,64.9,30.02,South,182,0.0,0.0,96,0.01,,,0.04,VWS V15.00,2015-09-05 07:25:00,
2015-09-05 03:30:00,66.1,64.9,30.02,South,182,0.0,0.0,96,0.01,,,0.04,VWS V15.00,2015-09-05 07:30:00,
2015-09-05 03:35:00,66.1,64.9,30.03,South,182,0.0,0.0,96,0.01,,,0.04,VWS V15.00,2015-09-05 07:35:00,
2015-09-05 03:40:00,66.1,64.9,30.03,South,182,0.0,0.0,96,0.01,,,0.04,VWS V15.00,2015-09-05 07:40:00,
2015-09-05 03:45:00,66.1,65.2,30.03,South,182,0.0,1.0,97,0.01,,,0.04,VWS V15.00,2015-09-05 07:45:00,
2015-09-05 03:50:00,66.2,65.3,30.03,South,182,0.0,0.0,97,0.01,,,0.04,VWS V15.00,2015-09-05 07:50:00,
2015-09-05 03:55:00,66.2,65.3,30.03,South,182,0.0,0.0,97,0.01,,,0.04,VWS V15.00,2015-09-05 07:55:00,
2015-09-05 04:00:00,66.2,65.3,30.03,South,182,0.0,0.0,97,0.01,,,0.04,VWS V15.00,2015-09-05 08:00:00,
2015-09-05 04:05:00,66.1,65.2,30.03,South,182,0.0,0.0,97,0.01,,,0.04,VWS V15.00,2015-09-05 08:05:00,
2015-09-05 04:10:00,66.1,65.2,30.03,South,182,0.0,0.0,97,0.00,,,0.04,VWS V15.00,2015-09-05 08:10:00,
2015-09-05 04:15:00,66.1,65.2,30.03,SE,134,4.0,4.0,97,0.00,,,0.04,VWS V15.00,2015-09-05 08:15:00,
2015-09-05 04:20:00,66.3,65.4,30.04,SE,134,0.0,0.0,97,0.00,,,0.04,VWS V15.00,2015-09-05 08:20:00,
2015-09-05 04:25:00,66.3,65.4,30.04,SE,134,0.0,0.0,97,0.00,,,0.04,VWS V15.00,2015-09-05 08:25:00,
2015-09-05 04:30:00,66.2,65.3,30.04,SE,134,0.0,0.0,97,0.00,,,0.04,VWS V15.00,2015-09-05 08:30:00,
2015-09-05 04:35:00,66.2,65.3,30.04,SE,134,0.0,1.0,97,0.00,,,0.04,VWS V15.00,2015-09-05 08:35:00,
2015-09-05 04:40:00,66.3,65.4,30.04,SE,134,0.0,1.0,97,0.00,,,0.04,VWS V15.00,2015-09-05 08:40:00,
2015-09-05 04:45:00,66.4,65.5,30.04,SE,134,0.0,1.0,97,0.00,,,0.04,VWS V15.00,2015-09-05 08:45:00,
2015-09-05 04:50:00,66.5,65.6,30.05,SE,126,2.0,4.0,97,0.00,,,0.04,VWS V15.00,2015-09-05 08:50:00,
2015-09-05 04:55:00,66.6,65.7,30.05,SE,128,0.0,6.0,97,0.00,,,0.04,VWS V15.00,2015-09-05 08:55:00,
2015-09-05 05:00:00,66.8,65.9,30.05,ESE,121,0.0,2.0,97,0.00,,,0.04,VWS V15.00,2015-09-05 09:00:00,
2015-09-05 05:05:00,66.8,65.9,30.05,ESE,118,2.0,4.0,97,0.00,,,0.04,VWS V15.00,2015-09-05 09:05:00,
2015-09-05 05:10:00,67.0,66.1,30.05,SE,124,0.0,2.0,97,0.00,,,0.04,VWS V15.00,2015-09-05 09:10:00,
2015-09-05 05:15:00,67.1,66.2,30.06,ESE,122,0.0,4.0,97,0.00,,,0.04,VWS V15.00,2015-09-05 09:15:00,
2015-09-05 05:20:00,67.2,66.0,30.06,ESE,122,0.0,1.0,96,0.00,,,0.04,VWS V15.00,2015-09-05 09:20:00,
2015-09-05 05:25:00,67.2,66.0,30.06,ESE,122,0.0,4.0,96,0.00,,,0.04,VWS V15.00,2015-09-05 09:25:00,
2015-09-05 05:30:00,67.3,66.1,30.06,ESE,121,0.0,2.0,96,0.00,,,0.04,VWS V15.00,2015-09-05 09:30:00,
2015-09-05 05:35:00,67.4,66.2,30.06,ESE,121,0.0,2.0,96,0.00,,,0.04,VWS V15.00,2015-09-05 09:35:00,
2015-09-05 05:40:00,67.4,66.2,30.06,ESE,121,0.0,0.0,96,0.00,,,0.04,VWS V15.00,2015-09-05 09:40:00,
2015-09-05 05:45:00,67.3,65.8,30.06,ESE,121,0.0,2.0,95,0.00,,,0.04,VWS V15.00,2015-09-05 09:45:00,
2015-09-05 05:50:00,67.3,65.8,30.06,ESE,121,0.0,0.0,95,0.00,,,0.04,VWS V15.00,2015-09-05 09:50:00,
2015-09-05 05:55:00,67.3,65.8,30.06,ESE,121,0.0,0.0,95,0.00,,,0.04,VWS V15.00,2015-09-05 09:55:00,
2015-09-05 06:00:00,67.2,65.7,30.06,ESE,121,0.0,0.0,95,0.00,,,0.04,VWS V15.00,2015-09-05 10:00:00,
2015-09-05 06:05:00,67.0,65.5,30.06,ESE,121,0.0,0.0,95,0.00,,,0.04,VWS V15.00,2015-09-05 10:05:00,
2015-09-05 06:10:00,66.9,65.7,30.07,ESE,121,0.0,0.0,96,0.00,,,0.04,VWS V15.00,2015-09-05 10:10:00,
2015-09-05 06:15:00,66.8,65.6,30.07,ESE,121,0.0,0.0,96,0.00,,,0.04,VWS V15.00,2015-09-05 10:15:00,
2015-09-05 06:20:00,66.8,65.6,30.07,ESE,121,0.0,0.0,96,0.00,,,0.04,VWS V15.00,2015-09-05 10:20:00,
2015-09-05 06:25:00,66.7,65.5,30.07,ESE,121,0.0,0.0,96,0.01,,,0.05,VWS V15.00,2015-09-05 10:25:00,
2015-09-05 06:30:00,66.7,65.5,30.08,ESE,121,0.0,0.0,96,0.01,,,0.05,VWS V15.00,2015-09-05 10:30:00,
2015-09-05 06:36:00,66.7,65.5,30.08,ESE,121,0.0,0.0,96,0.01,,,0.05,VWS V15.00,2015-09-05 10:36:00,
2015-09-05 06:41:00,66.6,65.4,30.08,ESE,121,0.0,0.0,96,0.01,,,0.05,VWS V15.00,2015-09-05 10:41:00,
2015-09-05 06:46:00,66.6,65.4,30.08,ESE,121,0.0,0.0,96,0.01,,,0.05,VWS V15.00,2015-09-05 10:46:00,
2015-09-05 06:51:00,66.5,65.3,30.08,ESE,121,0.0,0.0,96,0.01,,,0.05,VWS V15.00,2015-09-05 10:51:00,
2015-09-05 06:56:00,66.5,65.3,30.08,ESE,121,0.0,0.0,96,0.01,,,0.05,VWS V15.00,2015-09-05 10:56:00,
2015-09-05 07:01:00,66.4,65.2,30.08,ESE,121,0.0,0.0,96,0.01,,,0.05,VWS V15.00,2015-09-05 11:01:00,
2015-09-05 07:06:00,66.4,65.2,30.08,ESE,121,0.0,0.0,96,0.01,,,0.05,VWS V15.00,2015-09-05 11:06:00,
2015-09-05 07:11:00,66.4,65.2,30.08,ESE,121,0.0,0.0,96,0.01,,,0.05,VWS V15.00,2015-09-05 11:11:00,
2015-09-05 07:16:00,66.3,65.1,30.08,ESE,121,0.0,0.0,96,0.01,,,0.05,VWS V15.00,2015-09-05 11:16:00,
2015-09-05 07:21:00,66.3,65.1,30.08,ESE,121,0.0,0.0,96,0.01,,,0.05,VWS V15.00,2015-09-05 11:21:00,
2015-09-05 07:26:00,66.3,65.1,30.09,ESE,121,0.0,0.0,96,0.01,,,0.05,VWS V15.00,2015-09-05 11:26:00,
2015-09-05 07:31:00,66.3,65.1,30.08,ESE,121,0.0,0.0,96,0.00,,,0.05,VWS V15.00,2015-09-05 11:31:00,
2015-09-05 07:36:00,66.3,65.1,30.09,ESE,121,0.0,0.0,96,0.00,,,0.05,VWS V15.00,2015-09-05 11:36:00,
2015-09-05 07:41:00,66.4,65.2,30.09,ESE,121,0.0,0.0,96,0.00,,,0.05,VWS V15.00,2015-09-05 11:41:00,
2015-09-05 07:46:00,66.4,65.5,30.09,ESE,121,0.0,0.0,97,0.00,,,0.05,VWS V15.00,2015-09-05 11:46:00,
2015-09-05 07:51:00,66.4,65.5,30.09,ESE,121,0.0,0.0,97,0.00,,,0.05,VWS V15.00,2015-09-05 11:51:00,
2015-09-05 07:56:00,66.5,65.6,30.09,ESE,121,0.0,0.0,97,0.00,,,0.05,VWS V15.00,2015-09-05 11:56:00,
2015-09-05 08:01:00,66.6,65.7,30.09,ESE,121,0.0,0.0,97,0.00,,,0.05,VWS V15.00,2015-09-05 12:01:00,
2015-09-05 08:06:00,66.8,65.9,30.09,ESE,121,0.0,0.0,97,0.00,,,0.05,VWS V15.00,2015-09-05 12:06:00,
2015-09-05 08:11:00,66.9,66.0,30.09,ESE,121,0.0,0.0,97,0.00,,,0.05,VWS V15.00,2015-09-05 12:11:00,
2015-09-05 08:16:00,67.1,66.2,30.09,ESE,121,0.0,0.0,97,0.00,,,0.05,VWS V15.00,2015-09-05 12:16:00,
2015-09-05 08:21:00,67.3,66.4,30.10,ESE,121,0.0,0.0,97,0.00,,,0.05,VWS V15.00,2015-09-05 12:21:00,
2015-09-05 08:26:00,67.6,66.7,30.10,ESE,121,0.0,0.0,97,0.00,,,0.05,VWS V15.00,2015-09-05 12:26:00,
2015-09-05 08:31:00,68.0,67.1,30.10,ESE,121,0.0,0.0,97,0.00,,,0.05,VWS V15.00,2015-09-05 12:31:00,
2015-09-05 08:36:00,68.6,67.4,30.10,ESE,121,0.0,0.0,96,0.00,,,0.05,VWS V15.00,2015-09-05 12:36:00,
2015-09-05 08:41:00,69.2,67.7,30.10,ESE,121,0.0,0.0,95,0.00,,,0.05,VWS V15.00,2015-09-05 12:41:00,
2015-09-05 08:46:00,69.9,68.4,30.10,ESE,121,0.0,1.0,95,0.00,,,0.05,VWS V15.00,2015-09-05 12:46:00,
2015-09-05 08:51:00,70.5,68.1,30.10,ESE,121,0.0,0.0,92,0.00,,,0.05,VWS V15.00,2015-09-05 12:51:00,
2015-09-05 08:56:00,71.0,67.6,30.10,ESE,121,0.0,2.0,89,0.00,,,0.05,VWS V15.00,2015-09-05 12:56:00,
2015-09-05 09:01:00,71.4,67.7,30.10,ESE,121,0.0,1.0,88,0.00,,,0.05,VWS V15.00,2015-09-05 13:01:00,
2015-09-05 09:06:00,72.2,68.1,30.10,ESE,121,0.0,1.0,87,0.00,,,0.05,VWS V15.00,2015-09-05 13:06:00,
2015-09-05 09:11:00,73.1,69.0,30.10,ESE,121,0.0,0.0,87,0.00,,,0.05,VWS V15.00,2015-09-05 13:11:00,
2015-09-05 09:16:00,73.7,68.9,30.10,ESE,121,0.0,0.0,85,0.00,,,0.05,VWS V15.00,2015-09-05 13:16:00,
2015-09-05 09:21:00,74.0,68.5,30.10,ESE,121,0.0,0.0,83,0.00,,,0.05,VWS V15.00,2015-09-05 13:21:00,
2015-09-05 09:26:00,74.3,68.8,30.10,ESE,121,0.0,0.0,83,0.00,,,0.05,VWS V15.00,2015-09-05 13:26:00,
2015-09-05 09:31:00,74.6,68.4,30.10,ESE,121,0.0,0.0,81,0.00,,,0.05,VWS V15.00,2015-09-05 13:31:00,
2015-09-05 09:36:00,74.9,67.9,30.10,ESE,121,0.0,0.0,79,0.00,,,0.05,VWS V15.00,2015-09-05 13:36:00,
2015-09-05 09:41:00,75.3,68.0,30.10,ESE,121,0.0,0.0,78,0.00,,,0.05,VWS V15.00,2015-09-05 13:41:00,
2015-09-05 09:46:00,75.6,68.3,30.10,ESE,121,0.0,1.0,78,0.00,,,0.05,VWS V15.00,2015-09-05 13:46:00,
2015-09-05 09:51:00,76.1,68.4,30.10,ESE,121,0.0,0.0,77,0.00,,,0.05,VWS V15.00,2015-09-05 13:51:00,
2015-09-05 09:56:00,76.4,67.9,30.10,ESE,121,0.0,1.0,75,0.00,,,0.05,VWS V15.00,2015-09-05 13:56:00,
2015-09-05 10:01:00,76.9,68.8,30.10,ESE,121,0.0,0.0,76,0.00,,,0.05,VWS V15.00,2015-09-05 14:01:00,
2015-09-05 10:06:00,77.6,68.7,30.10,SE,125,5.0,6.0,74,0.00,,,0.05,VWS V15.00,2015-09-05 14:06:00,
2015-09-05 10:11:00,77.8,67.7,30.10,ESE,117,1.0,5.0,71,0.00,,,0.05,VWS V15.00,2015-09-05 14:11:00,
2015-09-05 10:16:00,77.8,68.1,30.10,ESE,117,0.0,5.0,72,0.00,,,0.05,VWS V15.00,2015-09-05 14:16:00,
2015-09-05 10:21:00,78.0,68.2,30.11,ESE,117,0.0,0.0,72,0.00,,,0.05,VWS V15.00,2015-09-05 14:21:00,
2015-09-05 10:26:00,78.2,68.0,30.11,ESE,117,0.0,1.0,71,0.00,,,0.05,VWS V15.00,2015-09-05 14:26:00,
2015-09-05 10:31:00,78.2,68.0,30.11,ESE,117,0.0,0.0,71,0.00,,,0.05,VWS V15.00,2015-09-05 14:31:00,
2015-09-05 10:36:00,78.3,68.9,30.11,ESE,117,0.0,1.0,73,0.00,,,0.05,VWS V15.00,2015-09-05 14:36:00,
2015-09-05 10:41:00,78.4,68.2,30.11,ESE,117,0.0,0.0,71,0.00,,,0.05,VWS V15.00,2015-09-05 14:41:00,
2015-09-05 10:46:00,78.4,68.2,30.11,ESE,117,0.0,0.0,71,0.00,,,0.05,VWS V15.00,2015-09-05 14:46:00,
2015-09-05 10:51:00,78.5,69.1,30.11,ESE,117,0.0,0.0,73,0.00,,,0.05,VWS V15.00,2015-09-05 14:51:00,
2015-09-05 10:56:00,78.5,68.3,30.11,ESE,117,0.0,1.0,71,0.00,,,0.05,VWS V15.00,2015-09-05 14:56:00,
2015-09-05 11:01:00,78.6,68.8,30.11,ESE,117,0.0,0.0,72,0.00,,,0.05,VWS V15.00,2015-09-05 15:01:00,
2015-09-05 11:06:00,78.7,68.5,30.11,ESE,117,0.0,0.0,71,0.00,,,0.05,VWS V15.00,2015-09-05 15:06:00,
2015-09-05 11:11:00,78.9,68.7,30.12,ESE,117,0.0,0.0,71,0.00,,,0.05,VWS V15.00,2015-09-05 15:11:00,
2015-09-05 11:16:00,79.0,68.8,30.12,ESE,117,0.0,0.0,71,0.00,,,0.05,VWS V15.00,2015-09-05 15:16:00,
2015-09-05 11:21:00,79.4,70.0,30.12,ESE,117,0.0,0.0,73,0.00,,,0.05,VWS V15.00,2015-09-05 15:21:00,
2015-09-05 11:26:00,80.0,70.2,30.12,ESE,117,0.0,0.0,72,0.00,,,0.05,VWS V15.00,2015-09-05 15:26:00,
2015-09-05 11:31:00,80.4,69.3,30.12,ESE,117,0.0,0.0,69,0.00,,,0.05,VWS V15.00,2015-09-05 15:31:00,
2015-09-05 11:36:00,80.8,70.1,30.11,ESE,117,0.0,0.0,70,0.00,,,0.05,VWS V15.00,2015-09-05 15:36:00,
2015-09-05 11:42:00,81.2,69.6,30.11,ESE,117,0.0,2.0,68,0.00,,,0.05,VWS V15.00,2015-09-05 15:42:00,
2015-09-05 11:47:00,81.4,69.4,30.11,ESE,117,0.0,2.0,67,0.00,,,0.05,VWS V15.00,2015-09-05 15:47:00,
2015-09-05 11:48:00,81.4,69.8,30.11,ESE,117,0.0,2.0,68,0.00,,,0.05,VWS V15.00,2015-09-05 15:48:00,
2015-09-05 11:51:00,81.5,69.9,30.11,ESE,117,0.0,0.0,68,0.00,,,0.05,VWS V15.00,2015-09-05 15:51:00,
2015-09-05 11:56:00,81.6,70.4,30.11,ESE,117,0.0,0.0,69,0.00,,,0.05,VWS V15.00,2015-09-05 15:56:00,
2015-09-05 12:01:00,81.6,70.0,30.11,ESE,117,0.0,0.0,68,0.00,,,0.05,VWS V15.00,2015-09-05 16:01:00,
2015-09-05 12:06:00,81.5,70.4,30.11,ESE,117,0.0,0.0,69,0.01,,,0.06,VWS V15.00,2015-09-05 16:06:00,
2015-09-05 12:11:00,81.4,69.8,30.11,ESE,117,0.0,0.0,68,0.01,,,0.06,VWS V15.00,2015-09-05 16:11:00,
2015-09-05 12:16:00,81.2,70.5,30.11,ESE,117,0.0,0.0,70,0.01,,,0.06,VWS V15.00,2015-09-05 16:16:00,
2015-09-05 12:21:00,81.3,71.0,30.11,ESE,117,0.0,0.0,71,0.01,,,0.06,VWS V15.00,2015-09-05 16:21:00,
2015-09-05 12:26:00,81.4,70.3,30.11,ESE,117,0.0,0.0,69,0.01,,,0.06,VWS V15.00,2015-09-05 16:26:00,
2015-09-05 12:31:00,81.6,70.9,30.11,ESE,117,0.0,0.0,70,0.01,,,0.06,VWS V15.00,2015-09-05 16:31:00,
2015-09-05 12:36:00,81.8,70.6,30.10,ESE,117,0.0,0.0,69,0.01,,,0.06,VWS V15.00,2015-09-05 16:36:00,
2015-09-05 12:41:00,82.1,70.9,30.10,ESE,117,1.0,4.0,69,0.01,,,0.06,VWS V15.00,2015-09-05 16:41:00,
2015-09-05 12:46:00,82.5,71.3,30.10,ESE,117,0.0,4.0,69,0.01,,,0.06,VWS V15.00,2015-09-05 16:46:00,
2015-09-05 12:51:00,82.9,71.3,30.09,ESE,117,0.0,1.0,68,0.01,,,0.06,VWS V15.00,2015-09-05 16:51:00,
2015-09-05 12:56:00,83.2,71.1,30.09,ESE,117,0.0,1.0,67,0.01,,,0.06,VWS V15.00,2015-09-05 16:56:00,
2015-09-05 13:01:00,83.6,71.5,30.09,ESE,117,0.0,1.0,67,0.01,,,0.06,VWS V15.00,2015-09-05 17:01:00,
2015-09-05 13:06:00,83.8,72.1,30.09,ESE,117,0.0,1.0,68,0.01,,,0.06,VWS V15.00,2015-09-05 17:06:00,